Time;durP1;ratioP1;P1;durP2;ratioP2;P2;SDS_P1;SDS_P2;PMS_P1;PMS_P2;Temp;Humidity;BMP_temperature;BMP_pressure;BME280_temperature;BME280_humidity;BME280_pressure;Samples;Min_cycle;Max_cycle;Signal;HPM_P1;HPM_P2
2021/08/28 00:00:59;;;;;;;10.23;4.53;;;12.20;98.00;;;;;;5070290;28;20035;-73
2021/08/28 00:03:24;;;;;;;7.68;3.67;;;12.20;98.00;;;;;;5070399;28;20024;-72
2021/08/28 00:05:51;;;;;;;11.02;3.67;;;12.20;98.00;;;;;;5070511;28;20056;-72
2021/08/28 00:08:19;;;;;;;7.65;3.97;;;12.20;98.00;;;;;;5070797;28;20608;-74
2021/08/28 00:10:45;;;;;;;6.82;4.05;;;12.10;98.00;;;;;;5069385;28;20040;-73
2021/08/28 00:13:12;;;;;;;9.38;3.25;;;12.10;98.00;;;;;;5070409;28;20031;-73
2021/08/28 00:15:38;;;;;;;8.45;3.75;;;12.20;98.00;;;;;;5071733;28;20024;-73
2021/08/28 00:18:04;;;;;;;7.75;3.58;;;12.20;98.00;;;;;;5075039;28;20379;-73
2021/08/28 00:20:30;;;;;;;7.20;3.42;;;12.20;98.00;;;;;;5074606;28;20044;-73
2021/08/28 00:22:56;;;;;;;7.95;3.50;;;12.20;98.00;;;;;;5074636;28;20103;-73
2021/08/28 00:25:21;;;;;;;5.57;3.20;;;12.20;98.00;;;;;;5071877;28;20089;-73
2021/08/28 00:27:47;;;;;;;6.47;3.08;;;12.20;98.00;;;;;;5075446;28;20033;-73
2021/08/28 00:30:14;;;;;;;7.38;3.45;;;12.20;98.00;;;;;;5074449;28;20032;-74
2021/08/28 00:32:40;;;;;;;6.38;3.13;;;12.20;98.00;;;;;;5073945;28;20043;-73
2021/08/28 00:35:06;;;;;;;7.30;2.90;;;12.20;98.00;;;;;;5075576;28;20411;-74
2021/08/28 00:37:32;;;;;;;5.45;2.97;;;12.20;98.00;;;;;;5074117;28;20082;-73
2021/08/28 00:39:58;;;;;;;7.97;3.00;;;12.20;98.00;;;;;;5073473;28;20039;-73
2021/08/28 00:42:24;;;;;;;7.00;3.58;;;12.20;98.00;;;;;;5073540;28;20115;-73
2021/08/28 00:44:51;;;;;;;10.35;3.30;;;12.20;98.00;;;;;;5072971;28;20115;-73
2021/08/28 00:47:17;;;;;;;8.07;3.80;;;12.20;98.00;;;;;;5073622;28;20110;-73
2021/08/28 00:49:47;;;;;;;8.75;3.92;;;12.20;98.00;;;;;;5074413;28;20056;-73
2021/08/28 00:52:13;;;;;;;7.18;2.85;;;12.20;98.00;;;;;;5075185;28;20016;-74
2021/08/28 00:54:39;;;;;;;7.25;3.60;;;12.10;98.00;;;;;;5071865;28;20070;-74
2021/08/28 00:57:07;;;;;;;9.48;3.88;;;12.10;98.00;;;;;;5074156;28;20375;-74
2021/08/28 00:59:33;;;;;;;5.90;2.80;;;12.10;98.00;;;;;;5074988;28;20290;-74
2021/08/28 01:01:59;;;;;;;7.78;2.95;;;12.10;98.00;;;;;;5074156;28;20036;-73
2021/08/28 01:04:28;;;;;;;8.48;3.20;;;12.10;98.00;;;;;;5073544;28;20056;-73
2021/08/28 01:07:03;;;;;;;6.45;3.22;;;12.10;98.00;;;;;;5074483;28;20029;-73
2021/08/28 01:09:35;;;;;;;7.70;3.45;;;12.10;98.00;;;;;;5073189;28;20033;-73
2021/08/28 01:12:19;;;;;;;6.70;3.65;;;12.10;98.00;;;;;;5071701;28;20194;-73
2021/08/28 01:14:47;;;;;;;;;;;12.10;98.00;;;;;;5072848;28;20040;-73
2021/08/28 01:17:14;;;;;;;8.10;3.60;;;12.10;98.00;;;;;;5073781;28;19916;-73
2021/08/28 01:19:39;;;;;;;5.65;3.13;;;12.10;98.00;;;;;;5073299;28;20016;-73
2021/08/28 01:22:15;;;;;;;6.75;3.40;;;12.10;98.00;;;;;;5073722;28;20503;-73
2021/08/28 01:24:46;;;;;;;6.03;3.35;;;12.10;98.00;;;;;;5072184;28;20020;-74
2021/08/28 01:27:19;;;;;;;7.53;3.22;;;12.10;98.00;;;;;;5072618;28;20032;-73
2021/08/28 01:29:47;;;;;;;7.10;3.20;;;12.10;98.00;;;;;;5074188;28;20024;-73
2021/08/28 01:32:16;;;;;;;8.80;3.70;;;12.10;98.00;;;;;;5074116;28;20329;-73
2021/08/28 01:34:42;;;;;;;6.20;2.90;;;12.10;98.00;;;;;;5073852;28;20047;-73
2021/08/28 01:37:11;;;;;;;9.63;4.05;;;12.10;98.00;;;;;;5072360;28;20024;-73
2021/08/28 01:39:37;;;;;;;7.38;3.47;;;12.10;98.00;;;;;;5071801;28;20039;-74
2021/08/28 01:42:04;;;;;;;5.78;3.25;;;12.10;98.00;;;;;;5072151;28;20031;-73
2021/08/28 01:44:32;;;;;;;7.43;3.50;;;12.10;98.00;;;;;;5071952;28;20333;-72
2021/08/28 01:46:57;;;;;;;5.50;3.55;;;12.10;98.00;;;;;;5072738;28;20111;-73
2021/08/28 01:49:25;;;;;;;9.07;3.63;;;12.10;98.00;;;;;;5073240;28;20155;-73
2021/08/28 01:51:51;;;;;;;6.03;3.50;;;12.00;98.00;;;;;;5072467;28;20040;-73
2021/08/28 01:54:17;;;;;;;9.85;4.00;;;12.00;98.00;;;;;;5072185;28;20036;-74
2021/08/28 01:56:42;;;;;;;7.18;3.72;;;12.00;98.00;;;;;;5073508;28;20028;-74
2021/08/28 01:59:08;;;;;;;8.10;3.67;;;12.00;98.00;;;;;;5072706;28;20020;-74
2021/08/28 02:01:34;;;;;;;7.28;3.70;;;12.00;98.00;;;;;;5072044;28;20016;-73
2021/08/28 02:04:00;;;;;;;6.95;3.60;;;12.00;98.00;;;;;;5073065;28;20566;-73
2021/08/28 02:06:36;;;;;;;7.72;4.20;;;12.00;98.00;;;;;;5073415;28;20040;-73
2021/08/28 02:09:36;;;;;;;6.53;3.97;;;12.00;98.00;;;;;;5072071;28;20036;-73
2021/08/28 02:12:35;;;;;;;7.13;3.63;;;12.00;98.00;;;;;;5061501;28;20078;-73
2021/08/28 02:15:31;;;;;;;8.30;4.10;;;12.00;98.00;;;;;;5072432;28;20029;-74
2021/08/28 02:18:19;;;;;;;7.45;3.85;;;12.00;98.00;;;;;;5074977;28;20036;-74
2021/08/28 02:20:53;;;;;;;7.63;4.13;;;12.00;98.00;;;;;;5070062;28;20021;-73
2021/08/28 02:23:37;;;;;;;6.95;3.47;;;12.00;98.00;;;;;;5071910;28;20044;-73
2021/08/28 02:26:15;;;;;;;9.25;4.13;;;12.00;98.00;;;;;;5071654;28;20041;-73
2021/08/28 02:28:55;;;;;;;7.95;3.55;;;12.00;98.00;;;;;;5075638;28;20054;-73
2021/08/28 02:31:26;;;;;;;4.97;3.22;;;12.00;98.00;;;;;;5071862;28;20024;-73
2021/08/28 02:33:53;;;;;;;6.53;3.63;;;12.10;98.00;;;;;;5073368;28;20048;-73
2021/08/28 02:36:19;;;;;;;7.05;3.38;;;12.10;98.00;;;;;;5071363;28;20429;-73
2021/08/28 02:38:48;;;;;;;5.78;3.05;;;12.10;98.00;;;;;;5070241;28;20047;-73
2021/08/28 02:41:14;;;;;;;8.25;4.03;;;12.10;98.00;;;;;;5069828;28;20017;-73
2021/08/28 02:43:41;;;;;;;7.07;3.15;;;12.10;98.00;;;;;;5069775;28;20028;-73
2021/08/28 02:46:08;;;;;;;5.65;2.88;;;12.10;98.00;;;;;;5070801;28;20115;-73
2021/08/28 02:48:35;;;;;;;5.75;2.95;;;12.10;98.00;;;;;;5072480;28;20027;-73
2021/08/28 02:51:02;;;;;;;5.95;3.00;;;12.10;98.00;;;;;;5070713;28;20044;-75
2021/08/28 02:53:30;;;;;;;6.03;3.03;;;12.00;98.00;;;;;;5076980;28;20025;-73
2021/08/28 02:55:57;;;;;;;4.75;2.30;;;12.00;98.00;;;;;;5073899;28;20413;-73
2021/08/28 02:58:23;;;;;;;8.20;2.90;;;12.00;98.00;;;;;;5069687;28;20017;-73
2021/08/28 03:00:50;;;;;;;6.45;3.22;;;12.00;98.00;;;;;;5070578;28;20103;-73
2021/08/28 03:03:17;;;;;;;5.38;2.60;;;12.00;98.00;;;;;;5071986;28;20028;-73
2021/08/28 03:05:48;;;;;;;7.13;3.20;;;12.00;98.00;;;;;;5071203;28;20402;-73
2021/08/28 03:08:15;;;;;;;9.85;3.05;;;12.00;98.00;;;;;;5071219;28;20032;-73
2021/08/28 03:10:45;;;;;;;5.90;2.85;;;12.10;98.00;;;;;;5070303;28;20086;-73
2021/08/28 03:13:11;;;;;;;8.05;3.10;;;12.10;98.00;;;;;;5071597;28;20020;-73
2021/08/28 03:15:37;;;;;;;6.25;2.80;;;12.10;98.00;;;;;;5071471;28;20039;-73
2021/08/28 03:18:07;;;;;;;6.60;3.10;;;12.10;98.00;;;;;;5071089;28;20025;-73
2021/08/28 03:20:34;;;;;;;6.22;2.90;;;12.10;98.00;;;;;;5071738;28;20497;-73
2021/08/28 03:23:00;;;;;;;5.05;2.80;;;12.00;98.00;;;;;;5069682;28;20103;-73
2021/08/28 03:25:27;;;;;;;6.60;3.15;;;12.00;98.00;;;;;;5070732;28;20040;-73
2021/08/28 03:27:53;;;;;;;5.97;3.08;;;12.00;98.00;;;;;;5071113;28;20049;-73
2021/08/28 03:30:20;;;;;;;5.70;3.13;;;12.00;98.00;;;;;;5070969;28;20443;-73
2021/08/28 03:32:47;;;;;;;4.68;2.97;;;12.00;98.00;;;;;;5070983;28;20041;-73
2021/08/28 03:35:13;;;;;;;7.53;3.38;;;12.00;98.00;;;;;;5071302;28;20051;-74
2021/08/28 03:37:40;;;;;;;7.00;3.50;;;12.00;98.00;;;;;;5071623;28;20017;-73
2021/08/28 03:40:10;;;;;;;6.20;3.30;;;11.90;98.00;;;;;;5069647;28;20098;-73
2021/08/28 03:42:44;;;;;;;7.05;3.67;;;12.00;98.00;;;;;;5070557;28;20032;-73
2021/08/28 03:45:11;;;;;;;5.95;3.10;;;11.90;98.00;;;;;;5070030;28;20036;-74
2021/08/28 03:47:40;;;;;;;6.25;3.47;;;11.90;98.00;;;;;;5069542;28;20383;-73
2021/08/28 03:50:06;;;;;;;9.95;4.30;;;11.90;98.00;;;;;;5069304;28;20049;-73
2021/08/28 03:52:33;;;;;;;6.93;3.63;;;11.90;98.00;;;;;;5070352;28;20129;-73
2021/08/28 03:54:59;;;;;;;6.15;3.72;;;11.80;98.00;;;;;;5069966;28;20043;-73
2021/08/28 03:57:24;;;;;;;10.52;4.30;;;11.80;98.00;;;;;;5069837;28;20033;-73
2021/08/28 03:59:50;;;;;;;6.85;3.78;;;11.80;98.00;;;;;;5070214;28;21163;-73
2021/08/28 04:02:16;;;;;;;8.50;3.90;;;11.80;98.00;;;;;;5069769;28;20024;-73
2021/08/28 04:04:41;;;;;;;6.57;3.50;;;11.80;98.00;;;;;;5071151;28;20052;-73
2021/08/28 04:07:07;;;;;;;5.68;3.47;;;11.80;98.00;;;;;;5071264;28;20078;-73
2021/08/28 04:09:32;;;;;;;7.30;3.30;;;11.80;98.00;;;;;;5068332;28;20387;-74
2021/08/28 04:11:58;;;;;;;10.73;4.28;;;11.80;98.00;;;;;;5070075;28;20312;-73
2021/08/28 04:14:24;;;;;;;6.43;3.35;;;11.80;98.00;;;;;;5069747;28;20036;-73
2021/08/28 04:16:50;;;;;;;9.57;3.97;;;11.80;98.00;;;;;;5069660;28;20036;-73
2021/08/28 04:19:16;;;;;;;7.57;3.95;;;11.80;98.00;;;;;;5068701;28;20115;-73
2021/08/28 04:21:42;;;;;;;6.40;3.90;;;11.80;98.00;;;;;;5070716;28;20108;-73
2021/08/28 04:24:10;;;;;;;6.00;3.72;;;11.80;98.00;;;;;;5069866;28;20032;-73
2021/08/28 04:26:36;;;;;;;8.18;4.40;;;11.80;98.00;;;;;;5071359;28;20024;-74
2021/08/28 04:29:04;;;;;;;9.20;5.45;;;11.80;98.00;;;;;;5071126;28;20033;-73
2021/08/28 04:31:31;;;;;;;7.65;4.38;;;11.80;98.00;;;;;;5071421;28;20078;-73
2021/08/28 04:33:56;;;;;;;11.05;4.90;;;11.80;98.00;;;;;;5070501;28;20021;-74
2021/08/28 04:36:22;;;;;;;6.25;4.13;;;11.80;98.00;;;;;;5070444;28;20345;-73
2021/08/28 04:38:48;;;;;;;8.75;4.13;;;11.80;98.00;;;;;;5069836;28;20047;-73
2021/08/28 04:41:13;;;;;;;10.35;5.28;;;11.80;98.00;;;;;;5070564;28;20036;-73
2021/08/28 04:43:39;;;;;;;6.57;3.92;;;11.80;98.00;;;;;;5070164;28;20033;-73
2021/08/28 04:46:05;;;;;;;8.90;4.45;;;11.80;98.00;;;;;;5069249;28;20119;-73
2021/08/28 04:48:31;;;;;;;8.68;4.78;;;11.90;98.00;;;;;;5070789;28;20381;-74
2021/08/28 04:50:57;;;;;;;8.95;4.63;;;11.80;98.00;;;;;;5070492;28;20067;-73
2021/08/28 04:53:26;;;;;;;8.15;4.53;;;11.80;98.00;;;;;;5071194;28;20029;-73
2021/08/28 04:55:52;;;;;;;7.97;4.47;;;11.80;98.00;;;;;;5067927;28;20090;-73
2021/08/28 04:58:17;;;;;;;7.97;4.10;;;11.80;98.00;;;;;;5070300;28;20028;-73
2021/08/28 05:00:43;;;;;;;7.32;4.25;;;11.80;98.00;;;;;;5070523;28;20036;-73
2021/08/28 05:03:08;;;;;;;8.52;4.38;;;11.80;98.00;;;;;;5074339;28;20020;-74
2021/08/28 05:05:34;;;;;;;8.38;4.35;;;11.80;98.00;;;;;;5071423;28;20384;-73
2021/08/28 05:08:00;;;;;;;7.95;4.20;;;11.80;98.00;;;;;;5074556;28;20099;-73
2021/08/28 05:10:27;;;;;;;8.45;5.22;;;11.80;98.00;;;;;;5073897;28;20035;-74
2021/08/28 05:12:53;;;;;;;8.40;4.28;;;11.80;98.00;;;;;;5073788;28;20032;-74
2021/08/28 05:15:19;;;;;;;6.95;4.07;;;11.90;98.00;;;;;;5070762;28;20024;-74
2021/08/28 05:17:44;;;;;;;8.57;4.40;;;11.80;98.00;;;;;;5074212;28;20020;-74
2021/08/28 05:20:10;;;;;;;8.48;5.28;;;11.80;98.00;;;;;;5072794;28;20444;-74
2021/08/28 05:22:36;;;;;;;8.35;4.95;;;11.80;98.00;;;;;;5073721;28;20066;-73
2021/08/28 05:25:02;;;;;;;8.85;4.97;;;11.80;98.00;;;;;;5072041;28;20052;-73
2021/08/28 05:27:31;;;;;;;11.90;4.70;;;11.70;98.00;;;;;;5072508;28;20025;-74
2021/08/28 05:29:57;;;;;;;7.28;4.38;;;11.80;98.00;;;;;;5070232;28;20024;-73
2021/08/28 05:32:22;;;;;;;11.00;5.13;;;11.80;98.00;;;;;;5073334;28;20028;-73
2021/08/28 05:34:49;;;;;;;11.05;4.72;;;11.80;98.00;;;;;;5070209;28;20054;-74
2021/08/28 05:37:14;;;;;;;10.25;4.60;;;11.70;98.00;;;;;;5072110;28;20063;-73
2021/08/28 05:39:40;;;;;;;8.70;5.03;;;11.60;98.00;;;;;;5070844;28;20418;-73
2021/08/28 05:42:06;;;;;;;12.18;6.50;;;11.50;98.00;;;;;;5070823;28;20436;-73
2021/08/28 05:44:32;;;;;;;11.55;6.43;;;11.40;98.00;;;;;;5069648;28;20032;-73
2021/08/28 05:46:57;;;;;;;14.63;6.90;;;11.40;98.00;;;;;;5072044;28;20036;-73
2021/08/28 05:49:23;;;;;;;13.85;7.07;;;11.40;98.00;;;;;;5073754;28;20108;-73
2021/08/28 05:51:49;;;;;;;8.93;6.35;;;11.30;98.00;;;;;;5073437;28;20032;-73
2021/08/28 05:54:14;;;;;;;9.88;6.85;;;11.30;98.00;;;;;;5073516;28;20092;-73
2021/08/28 05:56:40;;;;;;;13.35;6.88;;;11.30;97.90;;;;;;5072523;28;20025;-73
2021/08/28 05:59:05;;;;;;;11.48;7.15;;;11.30;97.90;;;;;;5073086;28;20025;-73
2021/08/28 06:01:31;;;;;;;12.80;7.60;;;11.30;97.80;;;;;;5073250;28;20355;-73
2021/08/28 06:03:57;;;;;;;13.05;7.55;;;11.30;97.50;;;;;;5075767;28;20027;-73
2021/08/28 06:06:22;;;;;;;14.52;8.40;;;11.30;97.40;;;;;;5077502;28;20057;-74
2021/08/28 06:08:48;;;;;;;13.00;8.18;;;11.20;97.10;;;;;;5075468;28;20028;-74
2021/08/28 06:11:14;;;;;;;14.35;8.90;;;11.30;96.90;;;;;;5076844;28;20043;-73
2021/08/28 06:13:39;;;;;;;11.98;8.77;;;11.30;96.80;;;;;;5076641;28;20094;-73
2021/08/28 06:16:05;;;;;;;11.85;8.07;;;11.30;96.80;;;;;;5074998;28;20073;-73
2021/08/28 06:18:31;;;;;;;12.60;9.10;;;11.30;96.50;;;;;;5073213;28;20029;-73
2021/08/28 06:20:58;;;;;;;15.02;9.82;;;11.30;96.60;;;;;;5062086;28;20033;-73
2021/08/28 06:23:24;;;;;;;13.73;9.40;;;11.30;96.60;;;;;;5076798;28;20286;-74
2021/08/28 06:25:50;;;;;;;14.85;11.23;;;11.30;96.20;;;;;;5075826;28;20031;-74
2021/08/28 06:28:16;;;;;;;17.67;10.77;;;11.40;96.30;;;;;;5076465;28;20056;-74
2021/08/28 06:30:42;;;;;;;13.73;10.05;;;11.40;96.30;;;;;;5077315;28;20360;-74
2021/08/28 06:33:08;;;;;;;15.30;9.85;;;11.50;96.10;;;;;;5076978;28;20029;-74
2021/08/28 06:35:34;;;;;;;21.45;12.55;;;11.50;96.30;;;;;;5076925;28;20031;-75
2021/08/28 06:38:00;;;;;;;17.67;10.65;;;11.50;96.00;;;;;;5074404;28;20409;-75
2021/08/28 06:40:25;;;;;;;13.73;9.02;;;11.50;96.40;;;;;;5064258;28;20027;-75
2021/08/28 06:42:51;;;;;;;12.10;8.25;;;11.60;96.10;;;;;;5069380;28;20435;-75
2021/08/28 06:45:17;;;;;;;13.15;9.48;;;11.60;96.70;;;;;;5074604;28;20020;-74
2021/08/28 06:47:43;;;;;;;16.75;10.07;;;11.50;96.70;;;;;;5073741;28;20016;-75
2021/08/28 06:50:09;;;;;;;12.32;9.00;;;11.50;96.80;;;;;;5075915;28;20478;-75
2021/08/28 06:52:34;;;;;;;15.50;10.40;;;11.50;96.30;;;;;;5072101;28;20036;-74
2021/08/28 06:55:00;;;;;;;19.45;10.93;;;11.50;96.50;;;;;;5075726;28;20033;-74
2021/08/28 06:57:26;;;;;;;14.70;9.68;;;11.50;96.50;;;;;;5075146;28;20019;-75
2021/08/28 06:59:51;;;;;;;18.02;11.00;;;11.50;96.60;;;;;;5075571;28;20082;-76
2021/08/28 07:02:17;;;;;;;18.40;11.45;;;11.50;96.70;;;;;;5076419;28;20032;-76
2021/08/28 07:04:42;;;;;;;17.45;12.40;;;11.50;96.40;;;;;;5076613;28;20344;-76
2021/08/28 07:07:11;;;;;;;19.95;12.38;;;11.50;96.30;;;;;;5074608;28;20587;-76
2021/08/28 07:09:37;;;;;;;17.88;12.10;;;11.50;96.40;;;;;;5071339;28;20024;-76
2021/08/28 07:12:03;;;;;;;18.80;12.32;;;11.50;96.20;;;;;;5076648;28;20054;-76
2021/08/28 07:14:28;;;;;;;17.10;12.27;;;11.60;96.20;;;;;;5074998;28;20406;-77
2021/08/28 07:16:54;;;;;;;18.48;12.98;;;11.70;96.20;;;;;;5067823;28;20021;-77
2021/08/28 07:19:22;;;;;;;21.60;13.23;;;11.70;96.70;;;;;;5074366;28;20416;-77
2021/08/28 07:21:48;;;;;;;17.48;11.30;;;11.70;96.70;;;;;;5075757;28;20028;-78
2021/08/28 07:24:14;;;;;;;19.80;12.60;;;11.60;97.20;;;;;;5062252;28;20032;-77
2021/08/28 07:26:39;;;;;;;16.10;11.32;;;11.60;96.60;;;;;;5065819;28;20020;-77
2021/08/28 07:29:05;;;;;;;18.30;12.40;;;11.70;96.30;;;;;;5076476;28;20025;-77
2021/08/28 07:31:30;;;;;;;18.63;11.45;;;11.70;96.80;;;;;;5075487;28;20032;-77
2021/08/28 07:33:56;;;;;;;15.93;11.02;;;11.80;96.60;;;;;;5074022;28;20032;-77
2021/08/28 07:36:22;;;;;;;17.73;10.73;;;11.80;97.00;;;;;;5058532;28;20021;-78
2021/08/28 07:38:48;;;;;;;17.63;9.82;;;11.90;96.90;;;;;;5060436;28;20029;-77
2021/08/28 07:41:13;;;;;;;14.82;9.27;;;11.90;98.00;;;;;;5059879;28;20082;-77
2021/08/28 07:43:39;;;;;;;13.50;9.10;;;11.90;98.00;;;;;;5055976;28;20096;-77
2021/08/28 07:46:05;;;;;;;14.05;10.45;;;11.80;98.00;;;;;;5061862;28;20418;-77
2021/08/28 07:48:30;;;;;;;14.77;10.57;;;11.80;98.00;;;;;;5056942;28;20024;-76
2021/08/28 07:50:56;;;;;;;13.48;9.82;;;11.80;98.00;;;;;;5066523;28;20037;-77
2021/08/28 07:53:22;;;;;;;18.67;12.02;;;11.80;98.00;;;;;;5074073;28;20032;-76
2021/08/28 07:55:48;;;;;;;15.30;10.48;;;12.10;98.00;;;;;;5073977;28;20091;-75
2021/08/28 07:58:13;;;;;;;14.05;10.32;;;12.30;98.00;;;;;;5074653;28;20096;-76
2021/08/28 08:00:39;;;;;;;15.98;11.65;;;12.40;98.00;;;;;;5074188;28;20413;-75
2021/08/28 08:03:05;;;;;;;13.75;10.55;;;12.50;98.00;;;;;;5074169;28;20385;-75
2021/08/28 08:05:30;;;;;;;17.25;11.82;;;12.60;98.00;;;;;;5072695;28;21574;-77
2021/08/28 08:07:59;;;;;;;15.88;11.07;;;12.60;98.00;;;;;;5075086;28;20087;-77
2021/08/28 08:10:25;;;;;;;18.58;11.52;;;12.80;98.00;;;;;;5074168;28;20031;-76
2021/08/28 08:12:50;;;;;;;18.95;12.95;;;12.80;98.00;;;;;;5059840;28;20036;-76
2021/08/28 08:15:16;;;;;;;19.02;13.00;;;12.60;98.00;;;;;;5069310;28;20048;-76
2021/08/28 08:17:42;;;;;;;17.20;11.73;;;12.60;98.00;;;;;;5075538;28;20036;-76
2021/08/28 08:20:08;;;;;;;16.88;11.13;;;12.60;98.00;;;;;;5056938;28;20108;-76
2021/08/28 08:22:33;;;;;;;18.80;11.07;;;12.40;98.00;;;;;;5074779;28;20055;-76
2021/08/28 08:24:59;;;;;;;15.13;10.48;;;12.40;98.00;;;;;;5072328;28;20044;-75
2021/08/28 08:27:25;;;;;;;17.50;9.90;;;12.50;98.00;;;;;;5075248;28;20032;-75
2021/08/28 08:29:50;;;;;;;14.90;11.18;;;12.60;98.00;;;;;;5075850;28;20048;-75
2021/08/28 08:32:16;;;;;;;13.50;9.57;;;12.60;98.00;;;;;;5073391;28;20028;-75
2021/08/28 08:34:42;;;;;;;15.02;11.00;;;12.70;98.00;;;;;;5058528;28;20034;-75
2021/08/28 08:37:07;;;;;;;17.83;11.15;;;12.70;98.00;;;;;;5068083;28;20021;-75
2021/08/28 08:39:33;;;;;;;17.85;11.10;;;12.60;98.00;;;;;;5069430;28;20025;-75
2021/08/28 08:41:59;;;;;;;15.43;11.27;;;12.50;98.00;;;;;;5067612;28;20070;-74
2021/08/28 08:44:27;;;;;;;18.88;13.85;;;12.40;98.00;;;;;;5062581;28;20061;-74
2021/08/28 08:46:53;;;;;;;18.30;13.07;;;12.40;98.00;;;;;;5062623;28;20116;-74
2021/08/28 08:49:19;;;;;;;18.80;13.02;;;12.30;98.00;;;;;;5072301;28;20037;-74
2021/08/28 08:51:50;;;;;;;17.58;12.57;;;12.50;98.00;;;;;;5076095;28;20107;-74
2021/08/28 08:54:16;;;;;;;15.88;11.43;;;12.90;98.00;;;;;;5068123;28;20063;-74
2021/08/28 08:56:41;;;;;;;17.85;10.90;;;13.50;98.00;;;;;;5059765;28;20040;-74
2021/08/28 08:59:07;;;;;;;17.20;10.00;;;14.20;98.00;;;;;;5069650;28;20127;-74
2021/08/28 09:01:33;;;;;;;15.60;9.00;;;14.80;98.00;;;;;;5077996;28;20027;-74
2021/08/28 09:03:59;;;;;;;11.70;7.20;;;15.30;98.00;;;;;;5078574;28;20417;-75
2021/08/28 09:06:24;;;;;;;12.38;7.75;;;16.00;97.60;;;;;;5078940;28;20028;-74
2021/08/28 09:08:50;;;;;;;11.60;6.85;;;16.30;96.40;;;;;;5073308;28;20056;-74
2021/08/28 09:11:34;;;;;;;12.88;6.93;;;16.30;96.60;;;;;;5065583;28;20055;-73
2021/08/28 09:14:17;;;;;;;9.40;5.95;;;16.30;96.00;;;;;;5062009;28;20119;-73
2021/08/28 09:16:44;;;;;;;9.10;6.47;;;16.70;95.90;;;;;;5066019;28;20104;-74
2021/08/28 09:19:09;;;;;;;10.50;5.95;;;16.50;95.40;;;;;;5062717;28;20033;-73
2021/08/28 09:21:37;;;;;;;7.43;4.43;;;16.80;95.20;;;;;;5071495;28;20037;-73
2021/08/28 09:24:08;;;;;;;6.75;4.43;;;18.20;93.40;;;;;;5076725;28;20035;-73
2021/08/28 09:26:39;;;;;;;7.82;4.97;;;18.30;88.50;;;;;;5076070;28;20040;-73
2021/08/28 09:29:08;;;;;;;7.80;4.70;;;17.20;92.80;;;;;;5070016;28;20116;-73
2021/08/28 09:31:49;;;;;;;7.00;4.55;;;16.40;94.50;;;;;;5072061;28;20032;-73
2021/08/28 09:34:27;;;;;;;6.78;3.80;;;16.10;95.40;;;;;;5078420;28;20020;-74
2021/08/28 09:36:58;;;;;;;7.70;5.10;;;15.90;95.00;;;;;;5078424;28;20024;-73
2021/08/28 09:39:44;;;;;;;7.47;4.43;;;15.60;95.70;;;;;;5070583;28;20056;-73
2021/08/28 09:42:22;;;;;;;9.55;5.32;;;15.20;96.60;;;;;;5071795;28;20020;-73
2021/08/28 09:44:49;;;;;;;10.13;6.60;;;15.10;97.40;;;;;;5077323;28;20459;-73
2021/08/28 09:47:24;;;;;;;9.00;5.65;;;15.00;97.90;;;;;;5077111;28;20021;-73
2021/08/28 09:49:51;;;;;;;8.10;5.68;;;14.90;97.90;;;;;;5077264;28;20066;-74
2021/08/28 09:52:23;;;;;;;10.32;6.38;;;14.90;97.80;;;;;;5073046;28;20033;-73
2021/08/28 09:54:49;;;;;;;8.15;5.18;;;14.70;97.80;;;;;;5057533;28;20406;-73
2021/08/28 09:57:16;;;;;;;8.05;4.80;;;14.70;98.00;;;;;;5062400;28;20254;-74
2021/08/28 09:59:43;;;;;;;8.82;5.88;;;14.60;98.00;;;;;;5076390;28;20024;-74
2021/08/28 10:02:11;;;;;;;8.52;5.72;;;14.50;98.00;;;;;;5077776;28;20062;-73
2021/08/28 10:04:55;;;;;;;12.48;5.88;;;14.40;98.00;;;;;;5076703;28;20052;-73
2021/08/28 10:07:25;;;;;;;8.18;5.70;;;14.40;98.00;;;;;;5074985;28;20024;-74
2021/08/28 10:09:59;;;;;;;10.90;7.35;;;14.40;98.00;;;;;;5062604;28;20353;-73
2021/08/28 10:12:26;;;;;;;11.18;7.00;;;14.20;98.00;;;;;;5068418;28;20033;-73
2021/08/28 10:14:55;;;;;;;8.88;6.38;;;13.90;98.00;;;;;;5077936;28;20035;-73
2021/08/28 10:17:22;;;;;;;8.20;5.53;;;13.80;98.00;;;;;;5064381;28;20025;-73
2021/08/28 10:19:50;;;;;;;11.85;6.68;;;14.00;98.00;;;;;;5065216;28;20025;-74
2021/08/28 10:22:20;;;;;;;9.55;6.32;;;14.10;98.00;;;;;;5071915;28;20028;-74
2021/08/28 10:24:49;;;;;;;14.75;6.25;;;14.20;98.00;;;;;;5056278;28;20029;-74
2021/08/28 10:27:16;;;;;;;8.18;5.50;;;14.60;98.00;;;;;;5058580;28;20021;-73
2021/08/28 10:29:42;;;;;;;7.30;4.60;;;15.10;98.00;;;;;;5060531;28;20021;-74
2021/08/28 10:32:08;;;;;;;8.60;4.65;;;15.60;97.60;;;;;;5069825;28;20173;-73
2021/08/28 10:34:35;;;;;;;6.65;4.22;;;16.00;96.90;;;;;;5066543;28;20054;-73
2021/08/28 10:37:03;;;;;;;6.53;4.20;;;16.50;95.40;;;;;;5072734;28;20021;-73
2021/08/28 10:39:29;;;;;;;6.32;3.85;;;17.00;94.00;;;;;;5064552;28;20406;-73
2021/08/28 10:41:56;;;;;;;7.13;3.65;;;17.20;94.20;;;;;;5064222;28;20020;-73
2021/08/28 10:44:21;;;;;;;7.00;3.90;;;17.60;90.00;;;;;;5070183;28;20361;-73
2021/08/28 10:46:47;;;;;;;7.20;4.03;;;17.60;90.60;;;;;;5057556;28;20037;-73
2021/08/28 10:49:13;;;;;;;6.78;4.07;;;17.30;90.20;;;;;;5056876;28;20029;-73
2021/08/28 10:51:41;;;;;;;6.63;4.10;;;17.00;91.30;;;;;;5062862;28;20036;-73
2021/08/28 10:54:11;;;;;;;5.68;4.00;;;16.90;93.00;;;;;;5055483;28;20095;-72
2021/08/28 10:56:52;;;;;;;6.32;4.10;;;16.70;92.30;;;;;;5064199;28;20045;-73
2021/08/28 10:59:24;;;;;;;6.88;4.22;;;16.30;91.60;;;;;;5068372;28;20021;-74
2021/08/28 11:01:58;;;;;;;6.25;4.20;;;16.10;93.50;;;;;;5066552;28;20470;-74
2021/08/28 11:04:39;;;;;;;6.38;4.10;;;16.00;94.10;;;;;;5056359;28;20425;-73
2021/08/28 11:07:20;;;;;;;8.00;4.32;;;16.30;94.50;;;;;;5073924;28;20032;-73
2021/08/28 11:10:10;;;;;;;7.50;4.70;;;16.30;92.90;;;;;;5060473;28;20025;-73
2021/08/28 11:12:51;;;;;;;8.43;4.75;;;16.00;94.40;;;;;;5064475;28;20105;-73
2021/08/28 11:15:31;;;;;;;10.82;5.30;;;15.50;96.30;;;;;;5071235;28;20406;-73
2021/08/28 11:18:02;;;;;;;7.85;4.80;;;15.50;96.20;;;;;;5060893;28;20075;-73
2021/08/28 11:20:34;;;;;;;8.52;5.82;;;15.40;95.60;;;;;;5058073;28;20025;-73
2021/08/28 11:23:02;;;;;;;9.57;4.82;;;15.20;95.90;;;;;;5059787;28;20064;-73
2021/08/28 11:25:33;;;;;;;7.93;5.00;;;15.00;96.10;;;;;;5058274;28;20396;-73
2021/08/28 11:28:00;;;;;;;8.85;4.72;;;15.00;97.30;;;;;;5059296;28;20492;-74
2021/08/28 11:30:44;;;;;;;8.30;5.30;;;14.90;97.50;;;;;;5073964;28;20417;-73
2021/08/28 11:33:10;;;;;;;7.13;4.88;;;14.50;97.50;;;;;;5067074;28;20052;-73
2021/08/28 11:35:40;;;;;;;7.55;5.38;;;14.30;98.00;;;;;;5063847;28;20086;-74
2021/08/28 11:38:08;;;;;;;9.60;6.10;;;14.00;98.00;;;;;;5067892;28;20033;-73
2021/08/28 11:40:36;;;;;;;8.32;5.38;;;13.70;98.00;;;;;;5056038;28;20044;-73
2021/08/28 11:43:04;;;;;;;9.48;5.82;;;13.50;98.00;;;;;;5068529;28;20029;-73
2021/08/28 11:45:39;;;;;;;8.45;5.57;;;13.30;98.00;;;;;;5055829;28;20080;-73
2021/08/28 11:48:13;;;;;;;8.63;6.53;;;13.00;98.00;;;;;;5074785;28;20088;-73
2021/08/28 11:50:41;;;;;;;11.75;6.75;;;12.90;98.00;;;;;;5069134;28;20313;-72
2021/08/28 11:53:07;;;;;;;10.70;7.57;;;12.90;98.00;;;;;;5062311;28;20024;-73
2021/08/28 11:55:36;;;;;;;10.93;8.15;;;12.80;98.00;;;;;;5063167;28;20029;-74
2021/08/28 11:58:12;;;;;;;11.95;6.78;;;12.90;98.00;;;;;;5067079;28;20421;-73
2021/08/28 12:00:38;;;;;;;9.77;6.53;;;13.10;98.00;;;;;;5070849;28;20404;-73
2021/08/28 12:03:06;;;;;;;11.38;7.13;;;13.30;98.00;;;;;;5071253;28;20028;-73
2021/08/28 12:05:33;;;;;;;12.07;8.13;;;13.30;98.00;;;;;;5062447;28;20061;-73
2021/08/28 12:07:59;;;;;;;10.73;6.72;;;13.20;98.00;;;;;;5057904;28;20385;-73
2021/08/28 12:10:26;;;;;;;10.68;6.80;;;13.10;98.00;;;;;;5060561;28;20032;-74
2021/08/28 12:13:00;;;;;;;8.07;5.55;;;13.00;98.00;;;;;;5074017;28;20031;-73
2021/08/28 12:15:27;;;;;;;7.35;4.30;;;12.80;98.00;;;;;;5072420;28;20320;-73
2021/08/28 12:17:53;;;;;;;9.57;5.38;;;12.70;98.00;;;;;;5074477;28;20020;-73
2021/08/28 12:20:25;;;;;;;8.52;5.53;;;12.60;98.00;;;;;;5074553;28;20428;-73
2021/08/28 12:22:53;;;;;;;9.43;6.03;;;12.60;98.00;;;;;;5075523;28;20032;-73
2021/08/28 12:25:19;;;;;;;10.93;6.43;;;12.70;98.00;;;;;;5073610;28;20032;-73
2021/08/28 12:27:46;;;;;;;11.90;4.45;;;12.70;98.00;;;;;;5074641;28;20294;-73
2021/08/28 12:30:12;;;;;;;5.68;3.58;;;12.90;98.00;;;;;;5075253;28;20029;-73
2021/08/28 12:32:38;;;;;;;6.20;3.33;;;13.00;98.00;;;;;;5075405;28;20020;-73
2021/08/28 12:35:04;;;;;;;5.47;3.28;;;12.90;98.00;;;;;;5074769;28;20028;-73
2021/08/28 12:37:31;;;;;;;5.55;3.40;;;13.10;98.00;;;;;;5075305;28;20035;-73
2021/08/28 12:39:59;;;;;;;8.73;4.03;;;13.40;98.00;;;;;;5073882;28;20414;-73
2021/08/28 12:42:29;;;;;;;5.88;3.40;;;13.40;98.00;;;;;;5075258;28;20029;-74
2021/08/28 12:45:00;;;;;;;4.60;2.70;;;13.50;98.00;;;;;;5074692;28;20021;-73